createdAt,value
2018-09-04T00:02:27.406Z,98242.45
2018-09-04T00:04:55.928Z,98246.14
2018-09-04T00:07:24.332Z,98242.59
2018-09-04T00:09:53.254Z,98245.96
2018-09-04T00:12:21.623Z,98243.22
2018-09-04T00:14:50.080Z,98246.81
2018-09-04T00:17:18.529Z,98247.67
2018-09-04T00:19:47.009Z,98247.94
2018-09-04T00:22:15.491Z,98249.58
2018-09-04T00:24:44.106Z,98249.27
2018-09-04T00:27:12.486Z,98242.86
2018-09-04T00:29:40.977Z,98239.08
2018-09-04T00:32:09.365Z,98242.84
2018-09-04T00:34:37.953Z,98241.28
2018-09-04T00:37:06.392Z,98249.96
2018-09-04T00:39:34.894Z,98240.64
2018-09-04T00:42:03.421Z,98241.19
2018-09-04T00:44:31.799Z,98235.80
2018-09-04T00:47:00.210Z,98238.47
2018-09-04T00:49:28.638Z,98236.83
2018-09-04T00:51:57.033Z,98236.78
2018-09-04T00:54:25.495Z,98234.05
2018-09-04T00:56:53.915Z,98237.11
2018-09-04T00:59:22.313Z,98236.20
2018-09-04T01:01:50.709Z,98231.63
2018-09-04T01:04:19.166Z,98234.54
2018-09-04T01:06:47.570Z,98236.18
2018-09-04T01:09:19.387Z,98244.38
2018-09-04T01:11:47.923Z,98248.37
2018-09-04T01:14:16.372Z,98239.92
2018-09-04T01:16:45.520Z,98243.19
2018-09-04T01:19:14.301Z,98243.27
2018-09-04T01:21:42.793Z,98243.06
2018-09-04T01:24:11.737Z,98244.39
2018-09-04T01:26:40.296Z,98239.95
2018-09-04T01:29:09.279Z,98243.88
2018-09-04T01:31:37.702Z,98242.44
2018-09-04T01:34:06.122Z,98245.41
2018-09-04T01:36:34.537Z,98248.63
2018-09-04T01:39:03.435Z,98250.81
2018-09-04T01:41:32.002Z,98255.93
2018-09-04T01:44:00.511Z,98246.91
2018-09-04T01:46:29.097Z,98249.36
2018-09-04T01:48:57.566Z,98244.00
2018-09-04T01:51:25.925Z,98239.15
2018-09-04T01:54:05.175Z,98252.30
2018-09-04T01:56:33.624Z,98252.94
2018-09-04T01:59:02.158Z,98253.63
2018-09-04T02:01:30.638Z,98250.16
2018-09-04T02:03:59.118Z,98250.06
2018-09-04T02:06:27.550Z,98251.64
2018-09-04T02:08:55.925Z,98252.45
2018-09-04T02:11:24.407Z,98250.55
2018-09-04T02:13:52.846Z,98256.82
2018-09-04T02:16:21.341Z,98246.48
2018-09-04T02:18:50.040Z,98252.50
2018-09-04T02:21:18.455Z,98249.09
2018-09-04T02:23:46.940Z,98241.44
2018-09-04T02:26:15.387Z,98237.48
2018-09-04T02:28:43.817Z,98235.88
2018-09-04T02:31:12.246Z,98239.30
2018-09-04T02:33:41.329Z,98245.56
2018-09-04T02:36:09.752Z,98243.11
2018-09-04T02:38:38.631Z,98249.70
2018-09-04T02:41:07.446Z,98246.67
2018-09-04T02:43:35.930Z,98246.05
2018-09-04T02:46:04.708Z,98249.09
2018-09-04T02:48:33.275Z,98246.53
2018-09-04T02:51:07.877Z,98248.61
2018-09-04T02:53:36.379Z,98248.89
2018-09-04T02:56:05.127Z,98252.53
2018-09-04T02:58:33.616Z,98254.72
2018-09-04T03:01:02.226Z,98247.31
2018-09-04T03:03:30.789Z,98249.05
2018-09-04T03:05:59.335Z,98243.94
2018-09-04T03:08:28.337Z,98239.30
2018-09-04T03:10:56.659Z,98242.23
2018-09-04T03:13:25.024Z,98240.87
2018-09-04T03:15:53.534Z,98242.72
2018-09-04T03:18:22.457Z,98249.05
2018-09-04T03:20:50.856Z,98255.70
2018-09-04T03:23:19.285Z,98255.20
2018-09-04T03:25:47.938Z,98251.55
2018-09-04T03:28:16.610Z,98253.75
2018-09-04T03:30:45.028Z,98245.54
2018-09-04T03:33:13.465Z,98245.98
2018-09-04T03:35:41.833Z,98248.66
2018-09-04T03:38:10.251Z,98254.35
2018-09-04T03:40:38.625Z,98248.77
2018-09-04T03:43:07.693Z,98251.07
2018-09-04T03:45:36.609Z,98245.78
2018-09-04T03:48:05.326Z,98251.67
2018-09-04T03:50:33.688Z,98255.80
2018-09-04T03:53:02.037Z,98260.16
2018-09-04T03:55:30.459Z,98263.16
2018-09-04T03:57:58.834Z,98267.78
2018-09-04T04:00:27.294Z,98267.03
2018-09-04T04:02:55.664Z,98273.44
2018-09-04T04:05:24.173Z,98268.73
2018-09-04T04:07:52.619Z,98271.40
2018-09-04T04:10:21.006Z,98274.41
2018-09-04T04:12:49.384Z,98276.11
2018-09-04T04:15:18.265Z,98279.86
2018-09-04T04:17:46.656Z,98281.60
2018-09-04T04:20:15.130Z,98270.37
2018-09-04T04:22:43.662Z,98271.19
2018-09-04T04:25:12.119Z,98275.62
2018-09-04T04:27:41.025Z,98272.59
2018-09-04T04:30:09.477Z,98267.41
2018-09-04T04:32:37.952Z,98272.48
2018-09-04T04:35:06.845Z,98277.44
2018-09-04T04:37:35.302Z,98274.89
2018-09-04T04:40:03.917Z,98273.81
2018-09-04T04:42:32.280Z,98271.87
2018-09-04T04:45:00.655Z,98275.98
2018-09-04T04:47:34.223Z,98274.05
2018-09-04T04:50:02.614Z,98277.69
2018-09-04T04:52:30.990Z,98282.97
2018-09-04T04:54:59.379Z,98279.34
2018-09-04T04:57:27.789Z,98279.36
2018-09-04T04:59:56.193Z,98286.31
2018-09-04T05:02:24.613Z,98290.36
2018-09-04T05:04:53.040Z,98293.47
2018-09-04T05:07:21.542Z,98296.77
2018-09-04T05:09:49.925Z,98295.08
2018-09-04T05:12:18.336Z,98301.19
2018-09-04T05:14:46.810Z,98296.95
2018-09-04T05:17:15.265Z,98298.34
2018-09-04T05:19:43.673Z,98294.30
2018-09-04T05:22:12.132Z,98290.72
2018-09-04T05:24:40.605Z,98294.45
2018-09-04T05:27:09.050Z,98295.90
2018-09-04T05:29:37.728Z,98306.55
2018-09-04T05:32:11.564Z,98305.47
2018-09-04T05:34:40.030Z,98309.13
2018-09-04T05:37:08.420Z,98314.06
2018-09-04T05:39:36.894Z,98318.06
2018-09-04T05:42:10.696Z,98324.34
2018-09-04T05:44:39.108Z,98320.48
2018-09-04T05:47:07.610Z,98327.00
2018-09-04T05:49:36.014Z,98325.66
2018-09-04T05:52:04.638Z,98332.57
2018-09-04T05:54:33.121Z,98334.87
2018-09-04T05:57:01.757Z,98332.82
2018-09-04T05:59:30.460Z,98335.53
2018-09-04T06:01:59.045Z,98334.41
2018-09-04T06:04:27.478Z,98334.86
2018-09-04T06:06:55.865Z,98331.28
2018-09-04T06:09:24.236Z,98340.28
2018-09-04T06:11:52.578Z,98344.12
2018-09-04T06:14:21.012Z,98338.53
2018-09-04T06:16:49.605Z,98343.25
2018-09-04T06:19:18.082Z,98339.34
2018-09-04T06:21:46.530Z,98345.05
2018-09-04T06:24:14.978Z,98340.14
2018-09-04T06:26:43.416Z,98338.78
2018-09-04T06:29:11.832Z,98342.44
2018-09-04T06:31:40.203Z,98337.80
2018-09-04T06:34:08.782Z,98339.85
2018-09-04T06:36:37.371Z,98341.23
2018-09-04T06:39:08.850Z,98339.27
2018-09-04T06:41:37.292Z,98337.05
2018-09-04T06:44:05.714Z,98346.26
2018-09-04T06:46:34.169Z,98352.69
2018-09-04T06:49:02.657Z,98352.19
2018-09-04T06:51:31.036Z,98351.52
2018-09-04T06:53:59.486Z,98350.11
2018-09-04T06:56:28.847Z,98352.67
2018-09-04T06:58:57.217Z,98353.05
2018-09-04T07:01:25.602Z,98343.20
2018-09-04T07:03:54.022Z,98346.82
2018-09-04T07:06:22.436Z,98352.38
2018-09-04T07:08:50.898Z,98348.70
2018-09-04T07:11:19.429Z,98341.90
2018-09-04T07:13:48.011Z,98342.37
2018-09-04T07:16:16.584Z,98349.97
2018-09-04T07:18:44.970Z,98343.95
2018-09-04T07:21:13.479Z,98350.13
2018-09-04T07:23:41.903Z,98355.56
2018-09-04T07:26:10.405Z,98353.70
2018-09-04T07:28:38.838Z,98351.27
2018-09-04T07:31:07.772Z,98355.01
2018-09-04T07:33:36.876Z,98350.77
2018-09-04T07:36:05.619Z,98348.99
2018-09-04T07:38:34.073Z,98344.98
2018-09-04T07:41:02.462Z,98352.05
2018-09-04T07:43:30.842Z,98346.28
2018-09-04T07:45:59.255Z,98348.76
2018-09-04T07:48:27.703Z,98338.53
2018-09-04T07:50:56.111Z,98334.05
2018-09-04T07:53:24.574Z,98336.98
2018-09-04T07:55:52.942Z,98339.88
2018-09-04T07:58:21.335Z,98341.50
2018-09-04T08:00:49.821Z,98342.28
2018-09-04T08:03:18.167Z,98341.16
2018-09-04T08:05:46.778Z,98339.32
2018-09-04T08:08:15.226Z,98326.34
2018-09-04T08:10:43.649Z,98323.27
2018-09-04T08:13:12.149Z,98321.84
2018-09-04T08:15:40.578Z,98323.33
2018-09-04T08:18:08.965Z,98330.84
2018-09-04T08:20:40.384Z,98333.13
2018-09-04T08:23:08.668Z,98333.95
2018-09-04T08:25:37.191Z,98329.48
2018-09-04T08:28:05.785Z,98321.24
2018-09-04T08:30:34.284Z,98329.78
2018-09-04T08:33:03.360Z,98324.02
2018-09-04T08:35:31.773Z,98321.74
2018-09-04T08:38:01.224Z,98326.21
2018-09-04T08:40:31.409Z,98327.09
2018-09-04T08:42:59.775Z,98318.20
2018-09-04T08:45:28.631Z,98308.50
2018-09-04T08:47:59.945Z,98312.88
2018-09-04T08:50:29.585Z,98319.60
2018-09-04T08:52:58.949Z,98317.92
2018-09-04T08:55:27.584Z,98322.64
2018-09-04T08:57:55.994Z,98318.23
2018-09-04T09:00:24.466Z,98319.26
2018-09-04T09:02:52.828Z,98313.91
2018-09-04T09:05:21.220Z,98315.22
2018-09-04T09:07:49.579Z,98313.03
2018-09-04T09:10:18.225Z,98316.25
2018-09-04T09:12:46.674Z,98310.53
2018-09-04T09:15:15.185Z,98308.37
2018-09-04T09:17:43.568Z,98298.66
2018-09-04T09:20:11.940Z,98294.89
2018-09-04T09:22:40.397Z,98295.52
2018-09-04T09:25:08.849Z,98290.31
2018-09-04T09:27:37.318Z,98291.64
2018-09-04T09:30:05.881Z,98293.20
2018-09-04T09:32:34.320Z,98296.73
2018-09-04T09:35:02.737Z,98301.61
2018-09-04T09:37:31.855Z,98297.72
2018-09-04T09:40:00.286Z,98306.39
2018-09-04T09:42:28.689Z,98305.47
2018-09-04T09:44:57.168Z,98310.36
2018-09-04T09:47:25.600Z,98307.30
2018-09-04T09:49:54.026Z,98299.72
2018-09-04T09:52:22.481Z,98298.61
2018-09-04T09:54:50.900Z,98289.16
2018-09-04T09:57:19.226Z,98290.44
2018-09-04T09:59:47.700Z,98282.16
2018-09-04T10:02:21.246Z,98289.48
2018-09-04T10:04:49.663Z,98294.78
2018-09-04T10:07:18.097Z,98294.59
2018-09-04T10:09:46.581Z,98293.09
2018-09-04T10:12:15.033Z,98282.41
2018-09-04T10:14:43.473Z,98288.47
2018-09-04T10:17:11.909Z,98283.12
2018-09-04T10:19:40.395Z,98280.58
2018-09-04T10:22:08.870Z,98274.27
2018-09-04T10:24:37.285Z,98278.67
2018-09-04T10:27:06.131Z,98278.08
2018-09-04T10:29:34.532Z,98275.25
2018-09-04T10:32:02.928Z,98277.05
2018-09-04T10:34:31.303Z,98274.55
2018-09-04T10:36:59.656Z,98282.14
2018-09-04T10:39:33.335Z,98284.33
2018-09-04T10:42:02.222Z,98283.53
2018-09-04T10:44:32.517Z,98283.39
2018-09-04T10:47:01.911Z,98275.88
2018-09-04T10:49:30.343Z,98279.23
2018-09-04T10:51:58.756Z,98279.93
2018-09-04T10:54:27.198Z,98276.38
2018-09-04T10:56:55.664Z,98276.83
2018-09-04T10:59:24.117Z,98277.02
2018-09-04T11:01:52.595Z,98280.95
2018-09-04T11:04:20.975Z,98274.27
2018-09-04T11:06:49.271Z,98278.38
2018-09-04T11:09:17.725Z,98273.91
2018-09-04T11:11:46.132Z,98273.67
2018-09-04T11:14:14.553Z,98266.72
2018-09-04T11:16:43.620Z,98265.08
2018-09-04T11:19:12.022Z,98265.86
2018-09-04T11:21:40.613Z,98267.80
2018-09-04T11:24:09.000Z,98269.14
2018-09-04T11:26:37.424Z,98268.52
2018-09-04T11:29:07.512Z,98266.48
2018-09-04T11:31:35.938Z,98271.27
2018-09-04T11:34:04.280Z,98268.76
2018-09-04T11:36:32.606Z,98256.36
2018-09-04T11:39:00.996Z,98252.62
2018-09-04T11:41:29.397Z,98255.51
2018-09-04T11:43:57.789Z,98258.84
2018-09-04T11:46:26.780Z,98255.83
2018-09-04T11:48:55.218Z,98260.34
2018-09-04T11:51:23.648Z,98254.72
2018-09-04T11:53:52.066Z,98260.29
2018-09-04T11:56:20.903Z,98258.47
2018-09-04T11:58:49.873Z,98258.13
2018-09-04T12:01:20.558Z,98261.48
2018-09-04T12:03:49.120Z,98269.11
2018-09-04T12:06:17.497Z,98263.50
2018-09-04T12:08:46.297Z,98257.80
2018-09-04T12:11:14.724Z,98255.17
2018-09-04T12:13:43.328Z,98263.42
2018-09-04T12:16:11.875Z,98259.61
2018-09-04T12:18:40.182Z,98259.48
2018-09-04T12:21:10.007Z,98252.64
2018-09-04T12:23:38.460Z,98254.13
2018-09-04T12:26:08.499Z,98251.53
2018-09-04T12:28:37.144Z,98257.00
2018-09-04T12:31:06.074Z,98255.87
2018-09-04T12:33:34.450Z,98257.06
2018-09-04T12:36:02.969Z,98257.97
2018-09-04T12:38:32.837Z,98254.45
2018-09-04T12:41:06.850Z,98246.41
2018-09-04T12:43:37.737Z,98250.50
2018-09-04T12:46:06.750Z,98245.64
2018-09-04T12:48:35.290Z,98252.09
2018-09-04T12:51:04.255Z,98250.75
2018-09-04T12:53:33.585Z,98256.40
2018-09-04T12:56:02.140Z,98250.62
2018-09-04T12:58:30.617Z,98247.06
2018-09-04T13:00:59.542Z,98247.11
2018-09-04T13:03:29.045Z,98242.50
2018-09-04T13:05:57.669Z,98242.58
2018-09-04T13:08:28.338Z,98241.48
2018-09-04T13:10:56.699Z,98244.77
2018-09-04T13:13:25.166Z,98246.13
2018-09-04T13:15:58.714Z,98241.47
2018-09-04T13:18:27.970Z,98250.19
2018-09-04T13:21:05.746Z,98246.31
2018-09-04T13:23:35.416Z,98249.79
2018-09-04T13:26:04.298Z,98242.73
2018-09-04T13:28:33.515Z,98235.44
2018-09-04T13:31:01.907Z,98234.19
2018-09-04T13:33:30.306Z,98237.93
2018-09-04T13:35:58.751Z,98239.49
2018-09-04T13:38:27.273Z,98233.50
2018-09-04T13:41:00.953Z,98233.84
2018-09-04T13:43:29.350Z,98228.66
2018-09-04T13:45:58.257Z,98227.48
2018-09-04T13:48:29.669Z,98223.03
2018-09-04T13:50:58.313Z,98221.89
2018-09-04T13:53:27.292Z,98224.66
2018-09-04T13:55:55.824Z,98219.05
2018-09-04T13:58:24.247Z,98220.44
2018-09-04T14:00:52.677Z,98216.62
2018-09-04T14:03:21.014Z,98216.32
2018-09-04T14:05:49.499Z,98211.88
2018-09-04T14:08:18.104Z,98210.69
2018-09-04T14:10:46.499Z,98208.20
2018-09-04T14:13:14.898Z,98207.49
2018-09-04T14:15:43.324Z,98217.97
2018-09-04T14:18:12.052Z,98213.45
2018-09-04T14:20:40.469Z,98207.91
2018-09-04T14:23:09.213Z,98200.88
2018-09-04T14:25:37.607Z,98206.56
2018-09-04T14:28:06.167Z,98207.33
2018-09-04T14:30:34.659Z,98204.77
2018-09-04T14:33:03.011Z,98206.75
2018-09-04T14:35:31.431Z,98203.05
2018-09-04T14:37:59.873Z,98206.56
2018-09-04T14:40:28.521Z,98200.83
2018-09-04T14:42:57.048Z,98202.83
2018-09-04T14:45:25.569Z,98206.47
2018-09-04T14:47:53.987Z,98201.30
2018-09-04T14:50:22.381Z,98203.27
2018-09-04T14:52:50.828Z,98199.90
2018-09-04T14:55:19.305Z,98204.42
2018-09-04T14:57:47.913Z,98198.00
2018-09-04T15:00:16.487Z,98199.61
2018-09-04T15:02:44.857Z,98188.01
2018-09-04T15:05:13.261Z,98188.70
2018-09-04T15:07:41.941Z,98190.72
2018-09-04T15:10:10.465Z,98189.09
2018-09-04T15:12:39.049Z,98202.15
2018-09-04T15:15:08.139Z,98198.66
2018-09-04T15:17:36.867Z,98204.25
2018-09-04T15:20:05.254Z,98197.73
2018-09-04T15:22:34.060Z,98198.50
2018-09-04T15:25:02.700Z,98200.72
2018-09-04T15:27:31.110Z,98199.62
2018-09-04T15:29:59.524Z,98201.67
2018-09-04T15:32:27.925Z,98198.41
2018-09-04T15:34:56.323Z,98201.60
2018-09-04T15:37:24.800Z,98203.52
2018-09-04T15:39:53.202Z,98199.86
2018-09-04T15:42:21.634Z,98206.30
2018-09-04T15:44:50.046Z,98200.89
2018-09-04T15:47:18.790Z,98206.34
2018-09-04T15:49:48.294Z,98210.12
2018-09-04T15:52:17.481Z,98200.05
2018-09-04T15:54:45.990Z,98198.56
2018-09-04T15:57:15.411Z,98201.23
2018-09-04T15:59:43.864Z,98198.38
2018-09-04T16:02:12.217Z,98200.56
2018-09-04T16:04:40.631Z,98198.71
2018-09-04T16:07:09.068Z,98194.20
2018-09-04T16:09:37.481Z,98197.58
2018-09-04T16:12:05.876Z,98198.22
2018-09-04T16:14:34.320Z,98196.73
2018-09-04T16:17:02.725Z,98199.25
2018-09-04T16:19:31.137Z,98200.27
2018-09-04T16:21:59.725Z,98201.35
2018-09-04T16:24:28.320Z,98200.33
2018-09-04T16:26:56.748Z,98204.84
2018-09-04T16:29:25.160Z,98205.84
2018-09-04T16:31:53.610Z,98206.42
2018-09-04T16:34:22.086Z,98202.64
2018-09-04T16:36:50.429Z,98211.30
2018-09-04T16:39:19.263Z,98208.49
2018-09-04T16:41:47.721Z,98211.05
2018-09-04T16:44:16.110Z,98218.11
2018-09-04T16:46:44.616Z,98215.94
2018-09-04T16:49:13.243Z,98211.39
2018-09-04T16:51:41.705Z,98207.48
2018-09-04T16:54:10.132Z,98208.64
2018-09-04T16:56:38.610Z,98214.00
2018-09-04T16:59:07.054Z,98210.14
2018-09-04T17:01:35.500Z,98216.79
2018-09-04T17:04:04.218Z,98219.25
2018-09-04T17:06:32.615Z,98213.98
2018-09-04T17:09:01.021Z,98219.05
2018-09-04T17:11:29.401Z,98214.86
2018-09-04T17:13:57.808Z,98223.48
2018-09-04T17:16:26.234Z,98226.08
2018-09-04T17:18:54.850Z,98217.67
2018-09-04T17:21:23.299Z,98218.14
2018-09-04T17:23:51.683Z,98227.78
2018-09-04T17:26:20.124Z,98219.56
2018-09-04T17:28:48.520Z,98221.55
2018-09-04T17:31:17.067Z,98222.05
2018-09-04T17:33:45.478Z,98220.05
2018-09-04T17:36:13.828Z,98225.41
2018-09-04T17:38:42.315Z,98229.59
2018-09-04T17:41:10.676Z,98232.34
2018-09-04T17:43:39.073Z,98228.88
2018-09-04T17:46:07.670Z,98239.13
2018-09-04T17:48:36.107Z,98239.23
2018-09-04T17:51:04.707Z,98249.22
2018-09-04T17:53:33.149Z,98247.52
2018-09-04T17:56:01.663Z,98248.66
2018-09-04T17:58:30.149Z,98255.30
2018-09-04T18:00:58.631Z,98256.61
2018-09-04T18:03:26.986Z,98252.99
2018-09-04T18:05:55.474Z,98258.80
2018-09-04T18:08:23.934Z,98259.19
2018-09-04T18:10:52.446Z,98257.26
2018-09-04T18:13:21.309Z,98259.69
2018-09-04T18:15:49.740Z,98268.18
2018-09-04T18:18:18.275Z,98269.24
2018-09-04T18:20:46.782Z,98264.77
2018-09-04T18:23:16.120Z,98268.02
2018-09-04T18:25:44.542Z,98274.83
2018-09-04T18:28:13.013Z,98268.77
2018-09-04T18:30:41.424Z,98274.66
2018-09-04T18:33:09.826Z,98281.75
2018-09-04T18:35:38.218Z,98284.77
2018-09-04T18:38:06.716Z,98287.31
2018-09-04T18:40:35.111Z,98281.44
2018-09-04T18:43:03.553Z,98290.67
2018-09-04T18:45:42.561Z,98296.25
2018-09-04T18:48:11.085Z,98299.10
2018-09-04T18:50:39.549Z,98299.92
2018-09-04T18:53:07.931Z,98295.84
2018-09-04T18:55:36.493Z,98309.96
2018-09-04T18:58:05.233Z,98312.83
2018-09-04T19:00:33.662Z,98313.15
2018-09-04T19:03:02.132Z,98318.67
2018-09-04T19:05:30.866Z,98316.63
2018-09-04T19:07:59.911Z,98315.95
2018-09-04T19:10:28.658Z,98318.81
2018-09-04T19:12:57.393Z,98317.43
2018-09-04T19:15:26.202Z,98310.40
2018-09-04T19:17:54.653Z,98323.20
2018-09-04T19:20:23.503Z,98314.11
2018-09-04T19:22:52.364Z,98319.81
2018-09-04T19:25:20.872Z,98318.50
2018-09-04T19:27:49.317Z,98317.16
2018-09-04T19:30:17.752Z,98310.39
2018-09-04T19:32:46.110Z,98315.77
2018-09-04T19:35:14.531Z,98313.93
2018-09-04T19:37:42.935Z,98313.19
2018-09-04T19:40:11.695Z,98311.48
2018-09-04T19:42:41.027Z,98312.64
2018-09-04T19:45:09.503Z,98322.71
2018-09-04T19:47:38.248Z,98319.00
2018-09-04T19:50:07.927Z,98312.77
2018-09-04T19:52:36.692Z,98319.95
2018-09-04T19:55:05.256Z,98325.08
2018-09-04T19:57:33.625Z,98325.45
2018-09-04T20:00:02.033Z,98326.56
2018-09-04T20:02:30.454Z,98325.88
2018-09-04T20:04:58.871Z,98326.15
2018-09-04T20:07:27.352Z,98326.73
2018-09-04T20:09:55.953Z,98329.11
2018-09-04T20:12:24.318Z,98330.14
2018-09-04T20:14:53.544Z,98333.34
2018-09-04T20:17:22.101Z,98330.95
2018-09-04T20:19:50.496Z,98322.79
2018-09-04T20:22:18.947Z,98333.94
2018-09-04T20:24:47.430Z,98326.11
2018-09-04T20:27:15.800Z,98323.59
2018-09-04T20:29:44.248Z,98335.58
2018-09-04T20:32:12.681Z,98335.67
2018-09-04T20:34:41.109Z,98328.32
2018-09-04T20:37:09.549Z,98335.12
2018-09-04T20:39:38.133Z,98334.87
2018-09-04T20:42:06.579Z,98332.97
2018-09-04T20:44:35.192Z,98338.10
2018-09-04T20:47:03.685Z,98346.08
2018-09-04T20:49:32.167Z,98338.27
2018-09-04T20:52:00.663Z,98347.02
2018-09-04T20:54:29.184Z,98351.17
2018-09-04T20:57:32.044Z,98345.58
2018-09-04T21:00:13.420Z,98345.13
2018-09-04T21:02:53.237Z,98344.69
2018-09-04T21:05:33.110Z,98345.89
2018-09-04T21:08:43.467Z,98344.39
2018-09-04T21:11:11.856Z,98345.05
2018-09-04T21:13:40.180Z,98341.55
2018-09-04T21:16:08.622Z,98342.38
2018-09-04T21:18:37.035Z,98338.98
2018-09-04T21:21:05.700Z,98339.80
2018-09-04T21:23:34.164Z,98339.84
2018-09-04T21:26:02.538Z,98343.20
2018-09-04T21:28:30.962Z,98339.86
2018-09-04T21:30:59.385Z,98342.52
2018-09-04T21:33:28.402Z,98344.31
2018-09-04T21:35:56.780Z,98347.42
2018-09-04T21:38:25.213Z,98343.34
2018-09-04T21:40:53.619Z,98347.91
2018-09-04T21:43:21.955Z,98347.52
2018-09-04T21:45:50.337Z,98344.28
2018-09-04T21:48:18.764Z,98341.53
2018-09-04T21:50:47.162Z,98350.23
2018-09-04T21:53:15.897Z,98353.30
2018-09-04T21:55:44.370Z,98351.87
2018-09-04T21:58:12.760Z,98346.17
2018-09-04T22:00:41.846Z,98350.77
2018-09-04T22:03:10.594Z,98350.25
2018-09-04T22:05:40.621Z,98346.48
2018-09-04T22:08:09.402Z,98349.63
2018-09-04T22:10:37.972Z,98350.67
2018-09-04T22:13:07.549Z,98350.91
2018-09-04T22:15:35.969Z,98350.09
2018-09-04T22:18:04.343Z,98348.79
2018-09-04T22:20:33.188Z,98354.68
2018-09-04T22:23:01.842Z,98352.30
2018-09-04T22:25:30.580Z,98342.11
2018-09-04T22:27:59.184Z,98346.66
2018-09-04T22:30:27.708Z,98341.88
2018-09-04T22:32:56.608Z,98340.27
2018-09-04T22:35:25.377Z,98343.23
2018-09-04T22:37:54.027Z,98340.24
2018-09-04T22:40:22.608Z,98348.81
2018-09-04T22:42:51.054Z,98347.99
2018-09-04T22:45:19.661Z,98358.14
2018-09-04T22:47:48.126Z,98352.90
2018-09-04T22:50:21.700Z,98350.46
2018-09-04T22:52:50.095Z,98348.78
2018-09-04T22:55:19.089Z,98346.59
2018-09-04T22:57:47.544Z,98341.20
2018-09-04T23:00:16.795Z,98350.09
2018-09-04T23:02:45.355Z,98344.30
2018-09-04T23:05:14.443Z,98347.45
2018-09-04T23:07:43.144Z,98348.55
2018-09-04T23:10:11.616Z,98349.05
2018-09-04T23:12:40.025Z,98351.83
2018-09-04T23:15:08.618Z,98352.54
2018-09-04T23:17:37.404Z,98345.70
2018-09-04T23:20:06.217Z,98350.73
2018-09-04T23:22:34.686Z,98350.30
2018-09-04T23:25:03.127Z,98348.81
2018-09-04T23:27:31.537Z,98351.06
2018-09-04T23:30:00.000Z,98350.30
2018-09-04T23:32:28.407Z,98348.21
2018-09-04T23:34:56.788Z,98353.80
2018-09-04T23:37:25.232Z,98356.35
2018-09-04T23:39:53.613Z,98357.90
2018-09-04T23:42:22.020Z,98350.25
2018-09-04T23:44:50.407Z,98358.69
2018-09-04T23:47:18.939Z,98351.06
2018-09-04T23:49:47.411Z,98345.33
2018-09-04T23:52:16.061Z,98345.11
2018-09-04T23:54:44.484Z,98338.77
2018-09-04T23:57:12.922Z,98341.40
2018-09-04T23:59:41.403Z,98347.36
